Terminal Aerodrome Forecast
Issued by NWS

Home | Current Version | Previous Version | Text Only | Print | Product List | Glossary On
Versions: 1 2 3 4 5 6 7 8 9 10 11 12 13 14 15 16 17 18 19
000
FTUS42 KGSP 250536
TAFGMU
TAF
KGMU 250536Z 2506/2606 19012G19KT P6SM SCT060 BKN090
     FM251300 21008G15KT P6SM VCSH BKN030
     FM251500 21011G20KT 6SM -SHRA OVC020
     FM251700 23005G16KT P6SM -SHRA OVC035
     FM260400 26004KT 5SM -SHRA BR OVC060=

USA.gov is the U.S. government's official web portal to all federal, state and local government web resources and services.